createdAt,value
2022-09-20T00:01:46.853Z,78.68
2022-09-20T00:04:38.533Z,78.78
2022-09-20T00:07:25.838Z,78.85
2022-09-20T00:10:14.421Z,79.04
2022-09-20T00:13:01.682Z,79.29
2022-09-20T00:15:48.829Z,79.35
2022-09-20T00:18:36.872Z,79.55
2022-09-20T00:21:27.264Z,79.68
2022-09-20T00:24:14.153Z,79.57
2022-09-20T00:27:01.434Z,79.58
2022-09-20T00:29:54.244Z,79.60
2022-09-20T00:32:41.850Z,79.75
2022-09-20T00:35:30.100Z,79.67
2022-09-20T00:38:17.470Z,79.82
2022-09-20T00:41:04.169Z,79.76
2022-09-20T00:43:52.217Z,79.52
2022-09-20T00:46:44.640Z,79.67
2022-09-20T00:49:34.271Z,79.67
2022-09-20T00:52:21.888Z,79.70
2022-09-20T00:55:09.464Z,79.90
2022-09-20T00:57:56.464Z,79.74
2022-09-20T01:08:57.999Z,79.59
2022-09-20T01:12:28.951Z,79.50
2022-09-20T01:16:00.035Z,79.80
2022-09-20T01:19:30.948Z,79.59
2022-09-20T01:23:27.264Z,79.75
2022-09-20T01:27:12.995Z,79.87
2022-09-20T01:30:49.980Z,79.62
2022-09-20T01:34:21.952Z,79.59
2022-09-20T01:38:11.037Z,79.96
2022-09-20T01:41:50.040Z,79.79
2022-09-20T01:45:33.140Z,79.80
2022-09-20T01:49:03.924Z,79.74
2022-09-20T01:52:35.021Z,79.50
2022-09-20T01:56:08.923Z,79.80
2022-09-20T01:59:58.022Z,79.57
2022-09-20T02:03:56.933Z,79.84
2022-09-20T02:07:31.042Z,79.63
2022-09-20T02:11:17.095Z,79.72
2022-09-20T02:15:11.066Z,79.85
2022-09-20T02:18:41.042Z,79.86
2022-09-20T02:22:20.874Z,79.73
2022-09-20T02:25:54.079Z,79.82
2022-09-20T02:29:27.895Z,79.62
2022-09-20T02:32:59.015Z,79.66
2022-09-20T02:36:29.893Z,79.75
2022-09-20T02:40:07.085Z,79.81
2022-09-20T02:43:48.891Z,79.81
2022-09-20T02:47:20.029Z,79.92
2022-09-20T02:50:59.894Z,79.97
2022-09-20T02:54:37.121Z,80.08
2022-09-20T02:58:20.866Z,80.06
2022-09-20T03:01:55.131Z,79.81
2022-09-20T03:05:29.901Z,80.02
2022-09-20T03:09:07.032Z,80.15
2022-09-20T03:12:44.891Z,80.13
2022-09-20T03:16:35.152Z,80.14
2022-09-20T03:20:05.891Z,80.32
2022-09-20T03:23:55.439Z,80.12
2022-09-20T03:27:39.837Z,80.08
2022-09-20T03:31:09.979Z,80.29
2022-09-20T03:34:43.865Z,80.29
2022-09-20T03:38:13.058Z,79.95
2022-09-20T03:41:49.865Z,80.31
2022-09-20T03:45:45.086Z,80.11
2022-09-20T03:49:27.890Z,80.15
2022-09-20T03:53:07.970Z,80.13
2022-09-20T03:56:50.862Z,80.27
2022-09-20T04:00:25.008Z,80.12
2022-09-20T04:04:01.884Z,80.31
2022-09-20T04:07:42.003Z,80.24
2022-09-20T04:11:18.858Z,80.32
2022-09-20T04:14:53.017Z,80.32
2022-09-20T04:18:26.862Z,80.64
2022-09-20T04:22:10.033Z,80.56
2022-09-20T04:25:58.831Z,80.57
2022-09-20T04:29:44.982Z,80.68
2022-09-20T04:33:24.871Z,80.65
2022-09-20T04:36:53.034Z,80.63
2022-09-20T04:40:29.934Z,80.77
2022-09-20T04:44:25.975Z,80.60
2022-09-20T04:48:21.861Z,80.64
2022-09-20T04:51:59.988Z,80.75
2022-09-20T04:55:39.849Z,80.75
2022-09-20T04:59:09.979Z,80.56
2022-09-20T05:02:39.899Z,81.00
2022-09-20T05:06:11.968Z,80.73
2022-09-20T05:09:45.843Z,80.72
2022-09-20T05:13:44.070Z,80.84
2022-09-20T05:17:14.851Z,80.74
2022-09-20T05:21:12.013Z,80.66
2022-09-20T05:24:51.844Z,80.43
2022-09-20T05:28:27.106Z,80.43
2022-09-20T05:32:12.929Z,80.63
2022-09-20T05:35:48.975Z,80.63
2022-09-20T05:39:25.884Z,80.57
2022-09-20T05:43:11.971Z,80.50
2022-09-20T05:46:48.853Z,80.72
2022-09-20T05:50:35.026Z,80.38
2022-09-20T05:54:17.816Z,80.53
2022-09-20T05:57:47.950Z,80.67
2022-09-20T06:01:17.899Z,80.58
2022-09-20T06:04:54.833Z,80.23
2022-09-20T06:08:37.841Z,80.56
2022-09-20T06:12:13.013Z,80.17
2022-09-20T06:15:52.832Z,79.91
2022-09-20T06:19:48.018Z,80.11
2022-09-20T06:23:15.858Z,80.25
2022-09-20T06:26:50.979Z,79.99
2022-09-20T06:30:23.835Z,80.21
2022-09-20T06:33:58.174Z,80.05
2022-09-20T06:37:33.588Z,79.96
2022-09-20T06:41:14.900Z,79.95
2022-09-20T06:44:47.877Z,79.78
2022-09-20T06:48:19.061Z,80.02
2022-09-20T06:51:52.867Z,80.06
2022-09-20T06:55:28.893Z,79.84
2022-09-20T06:59:04.998Z,79.74
2022-09-20T07:02:36.009Z,79.57
2022-09-20T07:06:05.851Z,79.43
2022-09-20T07:09:36.936Z,78.96
2022-09-20T07:13:05.870Z,78.86
2022-09-20T07:16:37.091Z,78.69
2022-09-20T07:20:06.853Z,79.20
2022-09-20T07:23:24.738Z,79.08
2022-09-20T07:26:53.852Z,79.12
2022-09-20T07:30:25.204Z,78.98
2022-09-20T07:33:55.833Z,78.72
2022-09-20T07:37:35.018Z,78.11
2022-09-20T07:41:04.905Z,78.24
2022-09-20T07:44:36.973Z,78.19
2022-09-20T07:48:11.816Z,78.00
2022-09-20T07:51:42.954Z,78.23
2022-09-20T07:55:13.822Z,78.44
2022-09-20T07:58:52.127Z,78.49
2022-09-20T08:02:21.986Z,78.32
2022-09-20T08:05:53.039Z,77.89
2022-09-20T08:09:24.853Z,78.15
2022-09-20T08:16:47.280Z,77.96
2022-09-20T08:20:17.932Z,78.16
2022-09-20T08:23:47.842Z,78.19
2022-09-20T08:27:22.905Z,78.12
2022-09-20T08:30:49.840Z,78.04
2022-09-20T08:34:20.922Z,77.85
2022-09-20T08:37:52.009Z,77.75
2022-09-20T08:41:28.939Z,77.78
2022-09-20T08:45:00.946Z,77.29
2022-09-20T08:48:32.917Z,77.04
2022-09-20T08:52:04.359Z,77.02
2022-09-20T08:55:37.232Z,77.29
2022-09-20T08:59:08.866Z,77.18
2022-09-20T09:02:42.880Z,77.16
2022-09-20T09:06:17.778Z,77.39
2022-09-20T09:09:49.998Z,77.66
2022-09-20T09:13:20.830Z,77.29
2022-09-20T09:16:51.967Z,77.14
2022-09-20T09:20:29.832Z,77.13
2022-09-20T09:23:58.965Z,77.13
2022-09-20T09:27:45.856Z,77.32
2022-09-20T09:31:18.945Z,77.40
2022-09-20T09:34:55.834Z,77.38
2022-09-20T09:38:29.959Z,77.31
2022-09-20T09:42:09.826Z,77.37
2022-09-20T09:45:43.971Z,76.57
2022-09-20T09:49:15.061Z,76.27
2022-09-20T09:52:33.915Z,76.58
2022-09-20T09:56:04.805Z,76.83
2022-09-20T09:59:34.508Z,77.17
2022-09-20T10:03:18.763Z,77.48
2022-09-20T10:06:36.284Z,77.92
2022-09-20T10:10:16.167Z,77.34
2022-09-20T10:13:49.209Z,77.12
2022-09-20T10:17:04.176Z,77.98
2022-09-20T10:20:38.194Z,77.73
2022-09-20T10:27:34.930Z,76.10
2022-09-20T10:31:26.192Z,75.24
2022-09-20T10:34:33.611Z,73.79
2022-09-20T10:38:07.817Z,71.92
2022-09-20T10:41:46.725Z,71.66
2022-09-20T10:46:03.785Z,72.33
2022-09-20T10:49:55.911Z,70.16
2022-09-20T10:53:35.890Z,71.84
2022-09-20T10:57:01.169Z,70.39
2022-09-20T11:00:02.441Z,69.80
2022-09-20T11:04:12.927Z,70.13
2022-09-20T11:07:42.777Z,70.10
2022-09-20T11:11:18.870Z,70.74
2022-09-20T11:14:55.773Z,70.83
2022-09-20T11:18:29.914Z,70.75
2022-09-20T11:22:04.773Z,71.51
2022-09-20T11:25:45.030Z,72.37
2022-09-20T11:29:15.797Z,72.29
2022-09-20T11:33:01.950Z,72.30
2022-09-20T11:36:32.732Z,69.37
2022-09-20T11:40:18.028Z,69.13
2022-09-20T11:43:29.781Z,68.00
2022-09-20T11:46:52.918Z,67.04
2022-09-20T11:50:39.544Z,66.39
2022-09-20T11:53:34.491Z,67.70
2022-09-20T11:57:11.911Z,65.67
2022-09-20T12:00:42.849Z,63.06
2022-09-20T12:08:04.036Z,64.58
2022-09-20T12:11:29.921Z,64.23
2022-09-20T12:14:44.751Z,64.80
2022-09-20T12:18:25.776Z,65.10
2022-09-20T12:21:30.781Z,65.40
2022-09-20T12:24:46.813Z,65.82
2022-09-20T12:28:17.862Z,66.31
2022-09-20T12:31:47.876Z,66.77
2022-09-20T12:35:21.875Z,67.26
2022-09-20T12:38:58.782Z,67.10
2022-09-20T12:42:42.889Z,67.73
2022-09-20T12:46:13.827Z,68.04
2022-09-20T12:50:13.683Z,66.73
2022-09-20T12:53:31.545Z,65.75
2022-09-20T12:56:50.951Z,64.67
2022-09-20T13:00:13.730Z,64.20
2022-09-20T13:04:05.359Z,63.44
2022-09-20T13:07:34.848Z,65.28
2022-09-20T13:10:34.375Z,64.34
2022-09-20T13:14:19.714Z,64.11
2022-09-20T13:17:32.938Z,64.63
2022-09-20T13:20:31.682Z,64.60
2022-09-20T13:23:29.739Z,64.49
2022-09-20T13:26:56.824Z,64.43
2022-09-20T13:30:17.774Z,63.32
2022-09-20T13:33:18.202Z,62.16
2022-09-20T13:36:10.619Z,61.94
2022-09-20T13:39:17.166Z,61.09
2022-09-20T13:42:36.763Z,60.87
2022-09-20T13:45:26.785Z,60.33
2022-09-20T13:48:16.997Z,58.41
2022-09-20T13:51:04.608Z,59.08
2022-09-20T13:53:52.225Z,59.69
2022-09-20T13:56:43.772Z,59.32
2022-09-20T13:59:45.812Z,58.93
2022-09-20T14:02:34.755Z,59.33
2022-09-20T14:05:26.904Z,58.34
2022-09-20T14:08:24.593Z,57.96
2022-09-20T14:11:50.845Z,58.81
2022-09-20T14:15:17.838Z,57.56
2022-09-20T14:18:59.912Z,57.02
2022-09-20T14:22:10.048Z,55.40
2022-09-20T14:25:29.945Z,56.36
2022-09-20T14:29:10.746Z,55.35
2022-09-20T14:32:30.935Z,56.23
2022-09-20T14:36:09.384Z,56.46
2022-09-20T14:39:45.374Z,56.80
2022-09-20T14:43:00.212Z,57.07
2022-09-20T14:46:22.902Z,57.60
2022-09-20T14:49:31.310Z,58.17
2022-09-20T14:52:46.643Z,57.79
2022-09-20T14:56:15.829Z,57.95
2022-09-20T14:59:36.957Z,58.11
2022-09-20T15:03:03.693Z,58.26
2022-09-20T15:06:40.950Z,58.57
2022-09-20T15:09:44.827Z,58.76
2022-09-20T15:13:15.327Z,58.71
2022-09-20T15:16:37.020Z,58.96
2022-09-20T15:19:48.258Z,59.19
2022-09-20T15:22:58.184Z,59.16
2022-09-20T15:25:54.356Z,59.25
2022-09-20T15:29:06.657Z,59.25
2022-09-20T15:32:00.799Z,59.32
2022-09-20T15:35:29.797Z,59.13
2022-09-20T15:38:40.297Z,59.13
2022-09-20T15:41:45.226Z,59.18
2022-09-20T15:44:40.109Z,59.55
2022-09-20T15:47:33.108Z,59.69
2022-09-20T15:50:31.570Z,60.04
2022-09-20T15:53:44.836Z,60.58
2022-09-20T15:56:34.187Z,60.86
2022-09-20T15:59:27.886Z,60.98
2022-09-20T16:02:41.620Z,61.13
2022-09-20T16:06:03.910Z,61.17
2022-09-20T16:09:04.173Z,61.29
2022-09-20T16:12:02.007Z,61.50
2022-09-20T16:14:49.818Z,62.16
2022-09-20T16:17:55.931Z,62.42
2022-09-20T16:20:45.597Z,62.44
2022-09-20T16:23:33.224Z,62.51
2022-09-20T16:26:21.880Z,62.72
2022-09-20T16:29:09.553Z,62.81
2022-09-20T16:31:58.783Z,63.12
2022-09-20T16:34:46.270Z,63.32
2022-09-20T16:37:33.493Z,63.45
2022-09-20T16:40:25.486Z,63.48
2022-09-20T16:43:13.009Z,63.64
2022-09-20T16:46:01.387Z,63.67
2022-09-20T16:48:53.905Z,63.84
2022-09-20T16:51:44.571Z,64.08
2022-09-20T16:54:34.002Z,64.15
2022-09-20T16:57:22.730Z,64.40
2022-09-20T17:00:12.303Z,64.40
2022-09-20T17:02:59.319Z,64.57
2022-09-20T17:05:48.418Z,64.77
2022-09-20T17:08:40.364Z,64.93
2022-09-20T17:11:57.818Z,25.33
2022-09-20T17:15:09.332Z,-1.00
2022-09-20T17:18:24.718Z,-1.00
2022-09-20T17:21:55.850Z,-1.00
2022-09-20T17:25:26.742Z,-1.00
2022-09-20T17:28:57.813Z,-1.00
2022-09-20T17:32:28.705Z,-1.00
2022-09-20T17:35:45.832Z,-1.00
2022-09-20T17:39:28.731Z,-1.00
2022-09-20T17:43:09.007Z,-1.00
2022-09-20T17:46:45.842Z,-1.00
2022-09-20T17:50:16.901Z,-1.00
2022-09-20T17:53:47.712Z,-1.00
2022-09-20T17:57:18.810Z,-1.00
2022-09-20T18:00:49.762Z,-1.00
2022-09-20T18:04:20.940Z,-1.00
2022-09-20T18:07:54.739Z,-1.00
2022-09-20T18:11:28.866Z,-1.00
2022-09-20T18:14:59.852Z,-1.00
2022-09-20T18:18:30.863Z,-1.00
2022-09-20T18:22:01.777Z,-1.00
2022-09-20T18:25:32.724Z,-1.00
2022-09-20T18:29:03.716Z,-1.00
2022-09-20T18:32:34.888Z,-1.00
2022-09-20T18:36:07.915Z,-1.00
2022-09-20T18:39:38.713Z,-1.00
2022-09-20T18:43:09.766Z,-1.00
2022-09-20T18:46:40.870Z,-1.00
2022-09-20T18:50:11.759Z,-1.00
2022-09-20T18:53:42.859Z,-1.00
2022-09-20T18:57:13.808Z,-1.00
2022-09-20T19:00:44.844Z,-1.00
2022-09-20T19:04:38.820Z,-1.00
2022-09-20T19:08:18.688Z,-1.00
2022-09-20T19:11:55.881Z,-1.00
2022-09-20T19:15:35.709Z,-1.00
2022-09-20T19:19:25.908Z,-1.00
2022-09-20T19:22:56.698Z,-1.00
2022-09-20T19:26:36.804Z,-1.00
2022-09-20T19:30:07.709Z,-1.00
2022-09-20T19:33:42.832Z,-1.00
2022-09-20T19:37:19.682Z,-1.00
2022-09-20T19:40:49.884Z,-1.00
2022-09-20T19:44:39.661Z,-1.00
2022-09-20T19:48:16.954Z,-1.00
2022-09-20T19:51:49.125Z,-1.00
2022-09-20T19:55:20.906Z,-1.00
2022-09-20T19:58:51.711Z,-1.00
2022-09-20T20:02:22.889Z,-1.00
2022-09-20T20:05:52.710Z,-1.00
2022-09-20T20:09:21.792Z,-1.00
2022-09-20T20:12:58.702Z,-1.00
2022-09-20T20:16:32.777Z,-1.00
2022-09-20T20:20:06.832Z,-1.00
2022-09-20T20:23:47.832Z,-1.00
2022-09-20T20:27:18.710Z,-1.00
2022-09-20T20:30:50.855Z,-1.00
2022-09-20T20:34:22.683Z,-1.00
2022-09-20T20:38:04.811Z,-1.00
2022-09-20T20:41:36.677Z,-1.00
2022-09-20T20:45:07.803Z,-1.00
2022-09-20T20:48:37.662Z,-1.00
2022-09-20T20:52:07.849Z,-1.00
2022-09-20T20:55:38.659Z,-1.00
2022-09-20T20:59:09.925Z,-1.00
2022-09-20T21:02:40.738Z,-1.00
2022-09-20T21:06:08.767Z,-1.00
2022-09-20T21:09:42.713Z,-1.00
2022-09-20T21:13:13.787Z,-1.00
2022-09-20T21:16:41.730Z,-1.00
2022-09-20T21:20:14.771Z,-1.00
2022-09-20T21:23:45.792Z,-1.00
2022-09-20T21:27:16.798Z,-1.00
2022-09-20T21:30:47.759Z,-1.00
2022-09-20T21:34:18.780Z,-1.00
2022-09-20T21:37:49.697Z,-1.00
2022-09-20T21:41:21.139Z,-1.00
2022-09-20T21:44:51.679Z,-1.00
2022-09-20T21:48:22.749Z,-1.00
2022-09-20T21:51:58.667Z,-1.00
2022-09-20T21:55:28.909Z,-1.00
2022-09-20T21:58:56.691Z,-1.00
2022-09-20T22:02:28.077Z,-1.00
2022-09-20T22:05:58.680Z,-1.00
2022-09-20T22:09:29.776Z,-1.00
2022-09-20T22:13:03.664Z,-1.00
2022-09-20T22:16:33.756Z,-1.00
2022-09-20T22:20:03.668Z,-1.00
2022-09-20T22:23:32.833Z,-1.00
2022-09-20T22:27:09.740Z,-1.00
2022-09-20T22:30:45.805Z,-1.00
2022-09-20T22:34:21.662Z,-1.00
2022-09-20T22:37:47.725Z,-1.00
2022-09-20T22:41:21.683Z,-1.00
2022-09-20T22:44:55.761Z,-1.00
2022-09-20T22:48:28.674Z,-1.00
2022-09-20T22:52:02.737Z,-1.00
2022-09-20T22:55:35.740Z,-1.00
2022-09-20T22:59:05.816Z,-1.00
2022-09-20T23:02:37.677Z,-1.00
2022-09-20T23:06:08.734Z,-1.00
2022-09-20T23:09:39.680Z,-1.00
2022-09-20T23:13:09.728Z,-1.00
2022-09-20T23:16:41.732Z,-1.00
2022-09-20T23:20:17.779Z,-1.00
2022-09-20T23:23:48.649Z,-1.00
2022-09-20T23:27:22.809Z,-1.00
2022-09-20T23:30:54.781Z,-1.00
2022-09-20T23:34:20.798Z,-1.00
2022-09-20T23:37:51.646Z,-1.00
2022-09-20T23:41:22.802Z,-1.00
2022-09-20T23:44:55.632Z,-1.00
2022-09-20T23:48:24.751Z,-1.00
2022-09-20T23:51:52.633Z,-1.00
2022-09-20T23:55:23.732Z,-1.00
2022-09-20T23:58:54.753Z,-1.00
